sensor_id;sensor_type;location;lat;lon;timestamp;P1;durP1;ratioP1;P2;durP2;ratioP2
71176;SDS011;58877;51.992;4.504;2023-08-06T00:01:06;4.90;;;4.90;;
71176;SDS011;58877;51.992;4.504;2023-08-06T00:03:31;4.81;;;4.81;;
71176;SDS011;58877;51.992;4.504;2023-08-06T00:05:57;4.60;;;4.60;;
71176;SDS011;58877;51.992;4.504;2023-08-06T00:08:22;4.70;;;4.70;;
71176;SDS011;58877;51.992;4.504;2023-08-06T00:10:48;4.52;;;4.52;;
71176;SDS011;58877;51.992;4.504;2023-08-06T00:13:14;4.56;;;4.56;;
71176;SDS011;58877;51.992;4.504;2023-08-06T00:15:39;4.80;;;4.80;;
71176;SDS011;58877;51.992;4.504;2023-08-06T00:18:05;4.79;;;4.79;;
71176;SDS011;58877;51.992;4.504;2023-08-06T00:20:31;4.60;;;4.60;;
71176;SDS011;58877;51.992;4.504;2023-08-06T00:22:56;4.57;;;4.57;;
71176;SDS011;58877;51.992;4.504;2023-08-06T00:25:22;4.64;;;4.64;;
71176;SDS011;58877;51.992;4.504;2023-08-06T00:27:47;4.68;;;4.68;;
71176;SDS011;58877;51.992;4.504;2023-08-06T00:30:13;4.74;;;4.74;;
71176;SDS011;58877;51.992;4.504;2023-08-06T00:32:39;4.67;;;4.67;;
71176;SDS011;58877;51.992;4.504;2023-08-06T00:35:04;4.71;;;4.71;;
71176;SDS011;58877;51.992;4.504;2023-08-06T00:37:30;4.81;;;4.81;;
71176;SDS011;58877;51.992;4.504;2023-08-06T00:39:56;4.78;;;4.78;;
71176;SDS011;58877;51.992;4.504;2023-08-06T00:42:22;4.60;;;4.60;;
71176;SDS011;58877;51.992;4.504;2023-08-06T00:44:47;4.67;;;4.67;;
71176;SDS011;58877;51.992;4.504;2023-08-06T00:47:13;4.97;;;4.97;;
71176;SDS011;58877;51.992;4.504;2023-08-06T00:49:39;4.79;;;4.79;;
71176;SDS011;58877;51.992;4.504;2023-08-06T00:52:06;4.55;;;4.55;;
71176;SDS011;58877;51.992;4.504;2023-08-06T00:54:36;5.26;;;5.26;;
71176;SDS011;58877;51.992;4.504;2023-08-06T00:57:02;4.27;;;4.27;;
71176;SDS011;58877;51.992;4.504;2023-08-06T00:59:29;4.53;;;4.53;;
71176;SDS011;58877;51.992;4.504;2023-08-06T01:01:57;4.67;;;4.67;;
71176;SDS011;58877;51.992;4.504;2023-08-06T01:04:22;4.84;;;4.84;;
71176;SDS011;58877;51.992;4.504;2023-08-06T01:06:50;5.00;;;5.00;;
71176;SDS011;58877;51.992;4.504;2023-08-06T01:17:25;4.81;;;4.81;;
71176;SDS011;58877;51.992;4.504;2023-08-06T01:19:52;4.93;;;4.93;;
71176;SDS011;58877;51.992;4.504;2023-08-06T01:22:18;4.63;;;4.63;;
71176;SDS011;58877;51.992;4.504;2023-08-06T01:24:45;4.90;;;4.90;;
71176;SDS011;58877;51.992;4.504;2023-08-06T01:30:12;4.94;;;4.94;;
71176;SDS011;58877;51.992;4.504;2023-08-06T01:32:42;5.18;;;5.18;;
71176;SDS011;58877;51.992;4.504;2023-08-06T01:35:11;5.29;;;5.29;;
71176;SDS011;58877;51.992;4.504;2023-08-06T01:37:41;5.45;;;5.45;;
71176;SDS011;58877;51.992;4.504;2023-08-06T01:40:11;4.91;;;4.91;;
71176;SDS011;58877;51.992;4.504;2023-08-06T01:42:38;5.57;;;5.57;;
71176;SDS011;58877;51.992;4.504;2023-08-06T01:45:04;5.64;;;5.64;;
71176;SDS011;58877;51.992;4.504;2023-08-06T01:47:31;5.28;;;5.28;;
71176;SDS011;58877;51.992;4.504;2023-08-06T01:49:56;5.46;;;5.46;;
71176;SDS011;58877;51.992;4.504;2023-08-06T01:52:22;5.46;;;5.46;;
71176;SDS011;58877;51.992;4.504;2023-08-06T01:54:47;5.56;;;5.56;;
71176;SDS011;58877;51.992;4.504;2023-08-06T01:57:13;6.29;;;6.29;;
71176;SDS011;58877;51.992;4.504;2023-08-06T01:59:39;5.89;;;5.89;;
71176;SDS011;58877;51.992;4.504;2023-08-06T02:02:05;6.49;;;6.49;;
71176;SDS011;58877;51.992;4.504;2023-08-06T02:04:30;6.14;;;6.14;;
71176;SDS011;58877;51.992;4.504;2023-08-06T02:06:56;6.38;;;6.38;;
71176;SDS011;58877;51.992;4.504;2023-08-06T02:09:21;5.98;;;5.98;;
71176;SDS011;58877;51.992;4.504;2023-08-06T02:11:47;6.21;;;6.21;;
71176;SDS011;58877;51.992;4.504;2023-08-06T02:14:12;6.32;;;6.32;;
71176;SDS011;58877;51.992;4.504;2023-08-06T02:16:38;6.41;;;6.41;;
71176;SDS011;58877;51.992;4.504;2023-08-06T02:19:03;6.34;;;6.34;;
71176;SDS011;58877;51.992;4.504;2023-08-06T02:21:29;6.51;;;6.51;;
71176;SDS011;58877;51.992;4.504;2023-08-06T02:23:55;5.91;;;5.91;;
71176;SDS011;58877;51.992;4.504;2023-08-06T02:26:21;6.02;;;6.02;;
71176;SDS011;58877;51.992;4.504;2023-08-06T02:28:46;5.60;;;5.60;;
71176;SDS011;58877;51.992;4.504;2023-08-06T02:31:11;5.60;;;5.60;;
71176;SDS011;58877;51.992;4.504;2023-08-06T02:33:37;5.50;;;5.50;;
71176;SDS011;58877;51.992;4.504;2023-08-06T02:36:03;5.62;;;5.62;;
71176;SDS011;58877;51.992;4.504;2023-08-06T02:38:30;5.07;;;5.07;;
71176;SDS011;58877;51.992;4.504;2023-08-06T02:40:56;3.91;;;3.91;;
71176;SDS011;58877;51.992;4.504;2023-08-06T02:43:22;3.58;;;3.58;;
71176;SDS011;58877;51.992;4.504;2023-08-06T02:45:47;3.15;;;3.15;;
71176;SDS011;58877;51.992;4.504;2023-08-06T02:48:13;3.01;;;3.01;;
71176;SDS011;58877;51.992;4.504;2023-08-06T02:50:39;2.44;;;2.44;;
71176;SDS011;58877;51.992;4.504;2023-08-06T02:53:06;2.26;;;2.26;;
71176;SDS011;58877;51.992;4.504;2023-08-06T02:55:34;2.11;;;2.11;;
71176;SDS011;58877;51.992;4.504;2023-08-06T02:58:01;2.02;;;2.02;;
71176;SDS011;58877;51.992;4.504;2023-08-06T03:00:27;1.96;;;1.96;;
71176;SDS011;58877;51.992;4.504;2023-08-06T03:02:52;1.39;;;1.39;;
71176;SDS011;58877;51.992;4.504;2023-08-06T03:05:18;1.22;;;1.22;;
71176;SDS011;58877;51.992;4.504;2023-08-06T03:07:44;0.94;;;0.94;;
71176;SDS011;58877;51.992;4.504;2023-08-06T03:10:09;0.58;;;0.58;;
71176;SDS011;58877;51.992;4.504;2023-08-06T03:12:35;0.54;;;0.54;;
71176;SDS011;58877;51.992;4.504;2023-08-06T03:15:00;0.55;;;0.55;;
71176;SDS011;58877;51.992;4.504;2023-08-06T03:17:27;0.51;;;0.51;;
71176;SDS011;58877;51.992;4.504;2023-08-06T03:19:52;0.77;;;0.77;;
71176;SDS011;58877;51.992;4.504;2023-08-06T03:22:18;1.11;;;1.11;;
71176;SDS011;58877;51.992;4.504;2023-08-06T03:24:44;0.93;;;0.93;;
71176;SDS011;58877;51.992;4.504;2023-08-06T03:27:12;0.93;;;0.93;;
71176;SDS011;58877;51.992;4.504;2023-08-06T03:29:37;0.93;;;0.93;;
71176;SDS011;58877;51.992;4.504;2023-08-06T03:32:08;0.95;;;0.95;;
71176;SDS011;58877;51.992;4.504;2023-08-06T03:34:34;1.32;;;1.32;;
71176;SDS011;58877;51.992;4.504;2023-08-06T03:37:00;2.08;;;2.08;;
71176;SDS011;58877;51.992;4.504;2023-08-06T03:39:28;2.06;;;2.05;;
71176;SDS011;58877;51.992;4.504;2023-08-06T03:41:53;2.37;;;2.37;;
71176;SDS011;58877;51.992;4.504;2023-08-06T03:44:19;3.21;;;3.21;;
71176;SDS011;58877;51.992;4.504;2023-08-06T03:46:45;3.35;;;3.35;;
71176;SDS011;58877;51.992;4.504;2023-08-06T03:49:10;3.42;;;3.42;;
71176;SDS011;58877;51.992;4.504;2023-08-06T03:51:36;3.57;;;3.57;;
71176;SDS011;58877;51.992;4.504;2023-08-06T03:54:01;3.94;;;3.94;;
71176;SDS011;58877;51.992;4.504;2023-08-06T03:56:27;4.15;;;4.15;;
71176;SDS011;58877;51.992;4.504;2023-08-06T03:58:52;4.07;;;4.07;;
71176;SDS011;58877;51.992;4.504;2023-08-06T04:01:18;3.82;;;3.82;;
71176;SDS011;58877;51.992;4.504;2023-08-06T04:03:43;3.97;;;3.97;;
71176;SDS011;58877;51.992;4.504;2023-08-06T04:06:09;3.46;;;3.46;;
71176;SDS011;58877;51.992;4.504;2023-08-06T04:08:34;3.09;;;3.09;;
71176;SDS011;58877;51.992;4.504;2023-08-06T04:11:00;3.42;;;3.42;;
71176;SDS011;58877;51.992;4.504;2023-08-06T04:13:26;2.74;;;2.74;;
71176;SDS011;58877;51.992;4.504;2023-08-06T04:15:51;2.62;;;2.62;;
71176;SDS011;58877;51.992;4.504;2023-08-06T04:18:18;2.42;;;2.42;;
71176;SDS011;58877;51.992;4.504;2023-08-06T04:20:47;2.50;;;2.50;;
71176;SDS011;58877;51.992;4.504;2023-08-06T04:23:14;2.35;;;2.35;;
71176;SDS011;58877;51.992;4.504;2023-08-06T04:25:40;2.27;;;2.26;;
71176;SDS011;58877;51.992;4.504;2023-08-06T04:28:06;2.46;;;2.45;;
71176;SDS011;58877;51.992;4.504;2023-08-06T04:30:32;2.38;;;2.38;;
71176;SDS011;58877;51.992;4.504;2023-08-06T04:32:58;2.52;;;2.50;;
71176;SDS011;58877;51.992;4.504;2023-08-06T04:35:23;2.66;;;2.64;;
71176;SDS011;58877;51.992;4.504;2023-08-06T04:37:49;2.41;;;2.39;;
71176;SDS011;58877;51.992;4.504;2023-08-06T04:40:14;2.33;;;2.32;;
71176;SDS011;58877;51.992;4.504;2023-08-06T04:42:40;2.51;;;2.51;;
71176;SDS011;58877;51.992;4.504;2023-08-06T04:45:06;2.37;;;2.37;;
71176;SDS011;58877;51.992;4.504;2023-08-06T04:47:32;2.45;;;2.45;;
71176;SDS011;58877;51.992;4.504;2023-08-06T04:49:57;2.47;;;2.47;;
71176;SDS011;58877;51.992;4.504;2023-08-06T04:52:23;2.59;;;2.59;;
71176;SDS011;58877;51.992;4.504;2023-08-06T04:54:52;2.49;;;2.48;;
71176;SDS011;58877;51.992;4.504;2023-08-06T04:57:18;2.70;;;2.69;;
71176;SDS011;58877;51.992;4.504;2023-08-06T04:59:43;2.78;;;2.77;;
71176;SDS011;58877;51.992;4.504;2023-08-06T05:02:09;2.74;;;2.73;;
71176;SDS011;58877;51.992;4.504;2023-08-06T05:04:34;3.12;;;3.10;;
71176;SDS011;58877;51.992;4.504;2023-08-06T05:07:00;3.12;;;3.12;;
71176;SDS011;58877;51.992;4.504;2023-08-06T05:09:25;3.38;;;3.38;;
71176;SDS011;58877;51.992;4.504;2023-08-06T05:11:51;2.97;;;2.97;;
71176;SDS011;58877;51.992;4.504;2023-08-06T05:14:16;3.06;;;3.06;;
71176;SDS011;58877;51.992;4.504;2023-08-06T05:16:42;3.15;;;3.15;;
71176;SDS011;58877;51.992;4.504;2023-08-06T05:19:07;3.30;;;3.30;;
71176;SDS011;58877;51.992;4.504;2023-08-06T05:21:33;2.90;;;2.90;;
71176;SDS011;58877;51.992;4.504;2023-08-06T05:23:58;2.92;;;2.92;;
71176;SDS011;58877;51.992;4.504;2023-08-06T05:26:24;2.99;;;2.99;;
71176;SDS011;58877;51.992;4.504;2023-08-06T05:28:49;2.89;;;2.89;;
71176;SDS011;58877;51.992;4.504;2023-08-06T05:31:15;3.23;;;3.22;;
71176;SDS011;58877;51.992;4.504;2023-08-06T05:33:41;3.17;;;3.14;;
71176;SDS011;58877;51.992;4.504;2023-08-06T05:36:06;3.39;;;3.37;;
71176;SDS011;58877;51.992;4.504;2023-08-06T05:38:32;3.16;;;3.12;;
71176;SDS011;58877;51.992;4.504;2023-08-06T05:41:00;3.17;;;3.12;;
71176;SDS011;58877;51.992;4.504;2023-08-06T05:43:26;2.57;;;2.53;;
71176;SDS011;58877;51.992;4.504;2023-08-06T05:45:51;2.76;;;2.69;;
71176;SDS011;58877;51.992;4.504;2023-08-06T05:48:17;2.76;;;2.70;;
71176;SDS011;58877;51.992;4.504;2023-08-06T05:50:43;2.51;;;2.41;;
71176;SDS011;58877;51.992;4.504;2023-08-06T05:53:08;2.75;;;2.63;;
71176;SDS011;58877;51.992;4.504;2023-08-06T05:55:34;2.49;;;2.38;;
71176;SDS011;58877;51.992;4.504;2023-08-06T05:58:00;2.75;;;2.64;;
71176;SDS011;58877;51.992;4.504;2023-08-06T06:00:26;2.79;;;2.67;;
71176;SDS011;58877;51.992;4.504;2023-08-06T06:02:52;2.96;;;2.87;;
71176;SDS011;58877;51.992;4.504;2023-08-06T06:05:17;3.03;;;2.93;;
71176;SDS011;58877;51.992;4.504;2023-08-06T06:07:43;2.69;;;2.60;;
71176;SDS011;58877;51.992;4.504;2023-08-06T06:10:08;2.52;;;2.43;;
71176;SDS011;58877;51.992;4.504;2023-08-06T06:12:34;2.21;;;2.14;;
71176;SDS011;58877;51.992;4.504;2023-08-06T06:15:00;2.54;;;2.47;;
71176;SDS011;58877;51.992;4.504;2023-08-06T06:17:26;1.72;;;1.67;;
71176;SDS011;58877;51.992;4.504;2023-08-06T06:19:52;1.71;;;1.66;;
71176;SDS011;58877;51.992;4.504;2023-08-06T06:22:18;1.41;;;1.38;;
71176;SDS011;58877;51.992;4.504;2023-08-06T06:24:44;1.44;;;1.40;;
71176;SDS011;58877;51.992;4.504;2023-08-06T06:27:09;1.24;;;1.20;;
71176;SDS011;58877;51.992;4.504;2023-08-06T06:29:35;1.40;;;1.33;;
71176;SDS011;58877;51.992;4.504;2023-08-06T06:32:00;1.16;;;1.08;;
71176;SDS011;58877;51.992;4.504;2023-08-06T06:34:26;1.27;;;1.19;;
71176;SDS011;58877;51.992;4.504;2023-08-06T06:36:51;1.24;;;1.17;;
71176;SDS011;58877;51.992;4.504;2023-08-06T06:39:17;1.29;;;1.18;;
71176;SDS011;58877;51.992;4.504;2023-08-06T06:41:43;1.64;;;1.48;;
71176;SDS011;58877;51.992;4.504;2023-08-06T06:44:09;1.34;;;1.20;;
71176;SDS011;58877;51.992;4.504;2023-08-06T06:46:34;1.52;;;1.36;;
71176;SDS011;58877;51.992;4.504;2023-08-06T06:49:00;1.77;;;1.54;;
71176;SDS011;58877;51.992;4.504;2023-08-06T06:51:25;1.44;;;1.25;;
71176;SDS011;58877;51.992;4.504;2023-08-06T06:53:51;1.49;;;1.29;;
71176;SDS011;58877;51.992;4.504;2023-08-06T06:56:16;1.44;;;1.29;;
71176;SDS011;58877;51.992;4.504;2023-08-06T06:58:42;1.63;;;1.49;;
71176;SDS011;58877;51.992;4.504;2023-08-06T07:01:08;1.66;;;1.52;;
71176;SDS011;58877;51.992;4.504;2023-08-06T07:03:44;1.45;;;1.35;;
71176;SDS011;58877;51.992;4.504;2023-08-06T07:06:13;1.78;;;1.66;;
71176;SDS011;58877;51.992;4.504;2023-08-06T07:08:43;1.71;;;1.61;;
71176;SDS011;58877;51.992;4.504;2023-08-06T07:11:12;1.60;;;1.51;;
71176;SDS011;58877;51.992;4.504;2023-08-06T07:13:41;1.46;;;1.37;;
71176;SDS011;58877;51.992;4.504;2023-08-06T07:16:16;1.68;;;1.60;;
71176;SDS011;58877;51.992;4.504;2023-08-06T07:18:45;1.86;;;1.76;;
71176;SDS011;58877;51.992;4.504;2023-08-06T07:21:13;1.69;;;1.61;;
71176;SDS011;58877;51.992;4.504;2023-08-06T07:23:39;1.51;;;1.46;;
71176;SDS011;58877;51.992;4.504;2023-08-06T07:26:13;2.09;;;2.04;;
71176;SDS011;58877;51.992;4.504;2023-08-06T07:28:38;1.91;;;1.86;;
71176;SDS011;58877;51.992;4.504;2023-08-06T07:31:07;1.89;;;1.85;;
71176;SDS011;58877;51.992;4.504;2023-08-06T07:33:32;2.22;;;2.14;;
71176;SDS011;58877;51.992;4.504;2023-08-06T07:36:06;1.71;;;1.67;;
71176;SDS011;58877;51.992;4.504;2023-08-06T07:38:37;1.86;;;1.82;;
71176;SDS011;58877;51.992;4.504;2023-08-06T07:41:03;1.79;;;1.73;;
71176;SDS011;58877;51.992;4.504;2023-08-06T07:43:29;1.58;;;1.53;;
71176;SDS011;58877;51.992;4.504;2023-08-06T07:45:57;1.67;;;1.63;;
71176;SDS011;58877;51.992;4.504;2023-08-06T07:48:29;2.23;;;2.19;;
71176;SDS011;58877;51.992;4.504;2023-08-06T07:50:55;1.54;;;1.50;;
71176;SDS011;58877;51.992;4.504;2023-08-06T07:53:26;1.71;;;1.66;;
71176;SDS011;58877;51.992;4.504;2023-08-06T07:56:02;1.85;;;1.78;;
71176;SDS011;58877;51.992;4.504;2023-08-06T07:58:30;1.59;;;1.55;;
71176;SDS011;58877;51.992;4.504;2023-08-06T08:00:57;1.81;;;1.77;;
71176;SDS011;58877;51.992;4.504;2023-08-06T08:03:23;1.88;;;1.82;;
71176;SDS011;58877;51.992;4.504;2023-08-06T08:05:48;1.76;;;1.71;;
71176;SDS011;58877;51.992;4.504;2023-08-06T08:08:14;1.91;;;1.86;;
71176;SDS011;58877;51.992;4.504;2023-08-06T08:10:40;1.87;;;1.81;;
71176;SDS011;58877;51.992;4.504;2023-08-06T08:13:09;1.92;;;1.85;;
71176;SDS011;58877;51.992;4.504;2023-08-06T08:15:35;1.72;;;1.66;;
71176;SDS011;58877;51.992;4.504;2023-08-06T08:18:01;1.84;;;1.77;;
71176;SDS011;58877;51.992;4.504;2023-08-06T08:20:27;1.68;;;1.62;;
71176;SDS011;58877;51.992;4.504;2023-08-06T08:22:58;1.82;;;1.78;;
71176;SDS011;58877;51.992;4.504;2023-08-06T08:25:36;1.73;;;1.70;;
71176;SDS011;58877;51.992;4.504;2023-08-06T08:28:06;1.59;;;1.56;;
71176;SDS011;58877;51.992;4.504;2023-08-06T08:30:34;1.63;;;1.60;;
71176;SDS011;58877;51.992;4.504;2023-08-06T08:33:00;1.45;;;1.42;;
71176;SDS011;58877;51.992;4.504;2023-08-06T08:35:40;2.04;;;2.01;;
71176;SDS011;58877;51.992;4.504;2023-08-06T08:38:17;1.79;;;1.76;;
71176;SDS011;58877;51.992;4.504;2023-08-06T08:40:46;1.44;;;1.42;;
71176;SDS011;58877;51.992;4.504;2023-08-06T08:43:20;1.50;;;1.48;;
71176;SDS011;58877;51.992;4.504;2023-08-06T08:45:49;1.60;;;1.58;;
71176;SDS011;58877;51.992;4.504;2023-08-06T08:48:24;1.45;;;1.44;;
71176;SDS011;58877;51.992;4.504;2023-08-06T08:50:52;1.52;;;1.50;;
71176;SDS011;58877;51.992;4.504;2023-08-06T08:53:18;1.46;;;1.43;;
71176;SDS011;58877;51.992;4.504;2023-08-06T08:55:48;1.45;;;1.43;;
71176;SDS011;58877;51.992;4.504;2023-08-06T08:58:15;1.40;;;1.38;;
71176;SDS011;58877;51.992;4.504;2023-08-06T09:00:47;1.53;;;1.50;;
71176;SDS011;58877;51.992;4.504;2023-08-06T09:03:16;1.18;;;1.16;;
71176;SDS011;58877;51.992;4.504;2023-08-06T09:05:44;1.16;;;1.14;;
71176;SDS011;58877;51.992;4.504;2023-08-06T09:08:14;1.56;;;1.53;;
71176;SDS011;58877;51.992;4.504;2023-08-06T09:10:45;1.36;;;1.33;;
71176;SDS011;58877;51.992;4.504;2023-08-06T09:13:15;1.40;;;1.37;;
71176;SDS011;58877;51.992;4.504;2023-08-06T09:15:44;1.21;;;1.20;;
71176;SDS011;58877;51.992;4.504;2023-08-06T09:18:10;1.38;;;1.37;;
71176;SDS011;58877;51.992;4.504;2023-08-06T09:20:38;1.42;;;1.41;;
71176;SDS011;58877;51.992;4.504;2023-08-06T09:23:08;1.30;;;1.29;;
71176;SDS011;58877;51.992;4.504;2023-08-06T09:25:38;1.32;;;1.31;;
71176;SDS011;58877;51.992;4.504;2023-08-06T09:28:05;1.25;;;1.24;;
71176;SDS011;58877;51.992;4.504;2023-08-06T09:30:32;1.36;;;1.36;;
71176;SDS011;58877;51.992;4.504;2023-08-06T09:33:01;1.31;;;1.30;;
71176;SDS011;58877;51.992;4.504;2023-08-06T09:35:45;1.14;;;1.13;;
71176;SDS011;58877;51.992;4.504;2023-08-06T09:38:14;1.08;;;1.07;;
71176;SDS011;58877;51.992;4.504;2023-08-06T09:40:40;1.21;;;1.21;;
71176;SDS011;58877;51.992;4.504;2023-08-06T09:43:10;1.38;;;1.36;;
71176;SDS011;58877;51.992;4.504;2023-08-06T09:45:37;1.38;;;1.36;;
71176;SDS011;58877;51.992;4.504;2023-08-06T09:48:06;1.50;;;1.48;;
71176;SDS011;58877;51.992;4.504;2023-08-06T09:50:34;1.23;;;1.22;;
71176;SDS011;58877;51.992;4.504;2023-08-06T09:53:04;1.02;;;1.02;;
71176;SDS011;58877;51.992;4.504;2023-08-06T09:55:54;1.57;;;1.55;;
71176;SDS011;58877;51.992;4.504;2023-08-06T09:58:28;1.20;;;1.19;;
71176;SDS011;58877;51.992;4.504;2023-08-06T10:01:04;1.46;;;1.45;;
71176;SDS011;58877;51.992;4.504;2023-08-06T10:03:32;1.24;;;1.23;;
71176;SDS011;58877;51.992;4.504;2023-08-06T10:06:03;1.28;;;1.26;;
71176;SDS011;58877;51.992;4.504;2023-08-06T10:08:34;0.91;;;0.90;;
71176;SDS011;58877;51.992;4.504;2023-08-06T10:11:02;1.09;;;1.08;;
71176;SDS011;58877;51.992;4.504;2023-08-06T10:13:31;1.17;;;1.15;;
71176;SDS011;58877;51.992;4.504;2023-08-06T10:15:59;1.15;;;1.13;;
71176;SDS011;58877;51.992;4.504;2023-08-06T10:18:26;1.23;;;1.21;;
71176;SDS011;58877;51.992;4.504;2023-08-06T10:20:57;1.03;;;1.01;;
71176;SDS011;58877;51.992;4.504;2023-08-06T10:23:34;1.12;;;1.10;;
71176;SDS011;58877;51.992;4.504;2023-08-06T10:26:03;1.30;;;1.27;;
71176;SDS011;58877;51.992;4.504;2023-08-06T10:28:39;0.93;;;0.91;;
71176;SDS011;58877;51.992;4.504;2023-08-06T10:31:05;1.26;;;1.23;;
71176;SDS011;58877;51.992;4.504;2023-08-06T10:33:44;1.20;;;1.17;;
71176;SDS011;58877;51.992;4.504;2023-08-06T10:36:12;1.07;;;1.03;;
71176;SDS011;58877;51.992;4.504;2023-08-06T10:38:46;1.30;;;1.26;;
71176;SDS011;58877;51.992;4.504;2023-08-06T10:41:18;1.05;;;1.01;;
71176;SDS011;58877;51.992;4.504;2023-08-06T10:43:50;1.30;;;1.26;;
71176;SDS011;58877;51.992;4.504;2023-08-06T10:46:23;1.37;;;1.34;;
71176;SDS011;58877;51.992;4.504;2023-08-06T10:48:58;1.18;;;1.15;;
71176;SDS011;58877;51.992;4.504;2023-08-06T10:51:24;1.26;;;1.23;;
71176;SDS011;58877;51.992;4.504;2023-08-06T10:53:51;1.19;;;1.16;;
71176;SDS011;58877;51.992;4.504;2023-08-06T10:56:18;1.06;;;1.03;;
71176;SDS011;58877;51.992;4.504;2023-08-06T10:58:50;1.19;;;1.17;;
71176;SDS011;58877;51.992;4.504;2023-08-06T11:01:17;1.15;;;1.13;;
71176;SDS011;58877;51.992;4.504;2023-08-06T11:03:46;1.11;;;1.09;;
71176;SDS011;58877;51.992;4.504;2023-08-06T11:06:18;1.24;;;1.21;;
71176;SDS011;58877;51.992;4.504;2023-08-06T11:08:49;1.01;;;0.99;;
71176;SDS011;58877;51.992;4.504;2023-08-06T11:11:17;1.29;;;1.27;;
71176;SDS011;58877;51.992;4.504;2023-08-06T11:13:44;0.93;;;0.90;;
71176;SDS011;58877;51.992;4.504;2023-08-06T11:16:14;1.11;;;1.08;;
71176;SDS011;58877;51.992;4.504;2023-08-06T11:18:43;1.16;;;1.12;;
71176;SDS011;58877;51.992;4.504;2023-08-06T11:21:10;0.89;;;0.86;;
71176;SDS011;58877;51.992;4.504;2023-08-06T11:23:39;1.25;;;1.20;;
71176;SDS011;58877;51.992;4.504;2023-08-06T11:26:09;1.23;;;1.19;;
71176;SDS011;58877;51.992;4.504;2023-08-06T11:28:35;0.96;;;0.92;;
71176;SDS011;58877;51.992;4.504;2023-08-06T11:31:01;1.02;;;0.99;;
71176;SDS011;58877;51.992;4.504;2023-08-06T11:33:29;0.94;;;0.91;;
71176;SDS011;58877;51.992;4.504;2023-08-06T11:35:55;0.98;;;0.95;;
71176;SDS011;58877;51.992;4.504;2023-08-06T11:38:29;0.94;;;0.91;;
71176;SDS011;58877;51.992;4.504;2023-08-06T11:40:59;0.98;;;0.95;;
71176;SDS011;58877;51.992;4.504;2023-08-06T11:43:29;0.95;;;0.93;;
71176;SDS011;58877;51.992;4.504;2023-08-06T11:45:56;0.99;;;0.96;;
71176;SDS011;58877;51.992;4.504;2023-08-06T11:48:22;0.96;;;0.94;;
71176;SDS011;58877;51.992;4.504;2023-08-06T11:51:01;0.93;;;0.92;;
71176;SDS011;58877;51.992;4.504;2023-08-06T11:53:35;1.01;;;0.98;;
71176;SDS011;58877;51.992;4.504;2023-08-06T11:56:13;0.89;;;0.87;;
71176;SDS011;58877;51.992;4.504;2023-08-06T11:59:07;0.85;;;0.83;;
71176;SDS011;58877;51.992;4.504;2023-08-06T12:01:46;0.88;;;0.85;;
71176;SDS011;58877;51.992;4.504;2023-08-06T12:04:15;0.81;;;0.79;;
71176;SDS011;58877;51.992;4.504;2023-08-06T12:06:45;0.98;;;0.95;;
71176;SDS011;58877;51.992;4.504;2023-08-06T12:09:16;1.16;;;1.11;;
71176;SDS011;58877;51.992;4.504;2023-08-06T12:11:42;0.70;;;0.66;;
71176;SDS011;58877;51.992;4.504;2023-08-06T12:14:08;0.75;;;0.70;;
71176;SDS011;58877;51.992;4.504;2023-08-06T12:16:36;0.67;;;0.63;;
71176;SDS011;58877;51.992;4.504;2023-08-06T12:19:01;0.95;;;0.89;;
71176;SDS011;58877;51.992;4.504;2023-08-06T12:21:30;0.88;;;0.83;;
71176;SDS011;58877;51.992;4.504;2023-08-06T12:23:59;0.91;;;0.85;;
71176;SDS011;58877;51.992;4.504;2023-08-06T12:26:25;0.91;;;0.85;;
71176;SDS011;58877;51.992;4.504;2023-08-06T12:28:50;0.91;;;0.86;;
71176;SDS011;58877;51.992;4.504;2023-08-06T12:31:20;0.85;;;0.79;;
71176;SDS011;58877;51.992;4.504;2023-08-06T12:33:46;0.70;;;0.64;;
71176;SDS011;58877;51.992;4.504;2023-08-06T12:36:12;0.69;;;0.63;;
71176;SDS011;58877;51.992;4.504;2023-08-06T12:38:38;0.98;;;0.88;;
71176;SDS011;58877;51.992;4.504;2023-08-06T12:41:03;0.90;;;0.79;;
71176;SDS011;58877;51.992;4.504;2023-08-06T12:43:29;0.89;;;0.78;;
71176;SDS011;58877;51.992;4.504;2023-08-06T12:46:02;0.84;;;0.73;;
71176;SDS011;58877;51.992;4.504;2023-08-06T12:48:36;0.78;;;0.68;;
71176;SDS011;58877;51.992;4.504;2023-08-06T12:51:02;0.66;;;0.58;;
71176;SDS011;58877;51.992;4.504;2023-08-06T12:53:31;0.98;;;0.87;;
71176;SDS011;58877;51.992;4.504;2023-08-06T12:55:59;1.01;;;0.88;;
71176;SDS011;58877;51.992;4.504;2023-08-06T12:58:25;0.88;;;0.77;;
71176;SDS011;58877;51.992;4.504;2023-08-06T13:00:54;0.82;;;0.73;;
71176;SDS011;58877;51.992;4.504;2023-08-06T13:03:20;0.73;;;0.66;;
71176;SDS011;58877;51.992;4.504;2023-08-06T13:05:46;0.70;;;0.62;;
71176;SDS011;58877;51.992;4.504;2023-08-06T13:08:17;0.78;;;0.69;;
71176;SDS011;58877;51.992;4.504;2023-08-06T13:10:44;0.90;;;0.80;;
71176;SDS011;58877;51.992;4.504;2023-08-06T13:13:11;0.78;;;0.68;;
71176;SDS011;58877;51.992;4.504;2023-08-06T13:15:40;0.80;;;0.69;;
71176;SDS011;58877;51.992;4.504;2023-08-06T13:18:06;0.81;;;0.70;;
71176;SDS011;58877;51.992;4.504;2023-08-06T13:20:33;0.63;;;0.55;;
71176;SDS011;58877;51.992;4.504;2023-08-06T13:23:01;0.79;;;0.69;;
71176;SDS011;58877;51.992;4.504;2023-08-06T13:25:29;0.71;;;0.63;;
71176;SDS011;58877;51.992;4.504;2023-08-06T13:28:05;0.78;;;0.68;;
71176;SDS011;58877;51.992;4.504;2023-08-06T13:30:33;0.80;;;0.69;;
71176;SDS011;58877;51.992;4.504;2023-08-06T13:33:01;0.86;;;0.74;;
71176;SDS011;58877;51.992;4.504;2023-08-06T13:35:37;1.20;;;1.00;;
71176;SDS011;58877;51.992;4.504;2023-08-06T13:38:03;1.70;;;1.34;;
71176;SDS011;58877;51.992;4.504;2023-08-06T13:40:39;2.06;;;1.57;;
71176;SDS011;58877;51.992;4.504;2023-08-06T13:43:11;2.27;;;1.63;;
71176;SDS011;58877;51.992;4.504;2023-08-06T13:45:47;2.29;;;1.58;;
71176;SDS011;58877;51.992;4.504;2023-08-06T13:48:33;2.54;;;1.70;;
71176;SDS011;58877;51.992;4.504;2023-08-06T13:51:01;2.11;;;1.37;;
71176;SDS011;58877;51.992;4.504;2023-08-06T13:53:30;2.66;;;1.72;;
71176;SDS011;58877;51.992;4.504;2023-08-06T13:55:59;3.11;;;1.99;;
71176;SDS011;58877;51.992;4.504;2023-08-06T13:58:26;2.86;;;1.81;;
71176;SDS011;58877;51.992;4.504;2023-08-06T14:00:52;2.54;;;1.58;;
71176;SDS011;58877;51.992;4.504;2023-08-06T14:03:19;2.77;;;1.72;;
71176;SDS011;58877;51.992;4.504;2023-08-06T14:05:50;2.78;;;1.73;;
71176;SDS011;58877;51.992;4.504;2023-08-06T14:08:24;2.62;;;1.62;;
71176;SDS011;58877;51.992;4.504;2023-08-06T14:13:39;2.87;;;1.78;;
71176;SDS011;58877;51.992;4.504;2023-08-06T14:16:16;2.45;;;1.53;;
71176;SDS011;58877;51.992;4.504;2023-08-06T14:18:57;2.78;;;1.76;;
71176;SDS011;58877;51.992;4.504;2023-08-06T14:21:32;2.30;;;1.45;;
71176;SDS011;58877;51.992;4.504;2023-08-06T14:24:07;2.12;;;1.33;;
71176;SDS011;58877;51.992;4.504;2023-08-06T14:26:35;2.41;;;1.50;;
71176;SDS011;58877;51.992;4.504;2023-08-06T14:29:17;2.80;;;1.74;;
71176;SDS011;58877;51.992;4.504;2023-08-06T14:31:50;2.89;;;1.81;;
71176;SDS011;58877;51.992;4.504;2023-08-06T14:34:25;3.12;;;1.97;;
71176;SDS011;58877;51.992;4.504;2023-08-06T14:36:54;4.57;;;2.92;;
71176;SDS011;58877;51.992;4.504;2023-08-06T14:39:20;4.26;;;2.81;;
71176;SDS011;58877;51.992;4.504;2023-08-06T14:41:54;3.48;;;2.35;;
71176;SDS011;58877;51.992;4.504;2023-08-06T14:44:26;2.56;;;1.75;;
71176;SDS011;58877;51.992;4.504;2023-08-06T14:47:10;2.44;;;1.73;;
71176;SDS011;58877;51.992;4.504;2023-08-06T14:49:36;2.35;;;1.66;;
71176;SDS011;58877;51.992;4.504;2023-08-06T14:52:06;2.60;;;1.87;;
71176;SDS011;58877;51.992;4.504;2023-08-06T14:55:00;2.36;;;1.69;;
71176;SDS011;58877;51.992;4.504;2023-08-06T14:57:27;2.37;;;1.68;;
71176;SDS011;58877;51.992;4.504;2023-08-06T14:59:56;3.03;;;2.14;;
71176;SDS011;58877;51.992;4.504;2023-08-06T15:02:22;2.81;;;1.99;;
71176;SDS011;58877;51.992;4.504;2023-08-06T15:04:55;2.71;;;1.92;;
71176;SDS011;58877;51.992;4.504;2023-08-06T15:07:21;3.05;;;2.15;;